sensor_id;sensor_type;location;lat;lon;timestamp;P1;durP1;ratioP1;P2;durP2;ratioP2
16403;SDS011;8311;50.158;8.642;2023-04-15T00:01:20;1.20;;;0.90;;
16403;SDS011;8311;50.158;8.642;2023-04-15T00:04:14;1.55;;;1.05;;
16403;SDS011;8311;50.158;8.642;2023-04-15T00:07:07;1.45;;;0.80;;
16403;SDS011;8311;50.158;8.642;2023-04-15T00:10:00;1.23;;;0.80;;
16403;SDS011;8311;50.158;8.642;2023-04-15T00:12:55;1.02;;;0.77;;
16403;SDS011;8311;50.158;8.642;2023-04-15T00:15:48;1.00;;;0.90;;
16403;SDS011;8311;50.158;8.642;2023-04-15T00:18:42;0.95;;;0.80;;
16403;SDS011;8311;50.158;8.642;2023-04-15T00:21:37;1.77;;;1.00;;
16403;SDS011;8311;50.158;8.642;2023-04-15T00:24:29;1.40;;;0.80;;
16403;SDS011;8311;50.158;8.642;2023-04-15T00:27:22;2.42;;;0.90;;
16403;SDS011;8311;50.158;8.642;2023-04-15T00:30:16;1.13;;;0.82;;
16403;SDS011;8311;50.158;8.642;2023-04-15T00:33:09;1.20;;;0.70;;
16403;SDS011;8311;50.158;8.642;2023-04-15T00:36:05;1.05;;;0.88;;
16403;SDS011;8311;50.158;8.642;2023-04-15T00:38:58;1.75;;;0.82;;
16403;SDS011;8311;50.158;8.642;2023-04-15T00:41:51;2.10;;;1.02;;
16403;SDS011;8311;50.158;8.642;2023-04-15T00:44:45;1.48;;;0.90;;
16403;SDS011;8311;50.158;8.642;2023-04-15T00:47:40;1.38;;;0.80;;
16403;SDS011;8311;50.158;8.642;2023-04-15T00:50:35;1.27;;;0.93;;
16403;SDS011;8311;50.158;8.642;2023-04-15T00:53:28;1.10;;;0.95;;
16403;SDS011;8311;50.158;8.642;2023-04-15T00:56:21;1.33;;;0.85;;
16403;SDS011;8311;50.158;8.642;2023-04-15T00:59:16;1.52;;;0.90;;
16403;SDS011;8311;50.158;8.642;2023-04-15T01:02:09;0.70;;;0.70;;
16403;SDS011;8311;50.158;8.642;2023-04-15T01:05:04;1.58;;;1.02;;
16403;SDS011;8311;50.158;8.642;2023-04-15T01:07:58;1.40;;;1.10;;
16403;SDS011;8311;50.158;8.642;2023-04-15T01:10:51;1.52;;;1.00;;
16403;SDS011;8311;50.158;8.642;2023-04-15T01:13:46;1.20;;;0.73;;
16403;SDS011;8311;50.158;8.642;2023-04-15T01:16:40;1.67;;;0.93;;
16403;SDS011;8311;50.158;8.642;2023-04-15T01:19:35;1.10;;;0.75;;
16403;SDS011;8311;50.158;8.642;2023-04-15T01:22:30;0.93;;;0.70;;
16403;SDS011;8311;50.158;8.642;2023-04-15T01:25:28;0.77;;;0.70;;
16403;SDS011;8311;50.158;8.642;2023-04-15T01:28:23;1.13;;;0.90;;
16403;SDS011;8311;50.158;8.642;2023-04-15T01:31:17;1.80;;;1.02;;
16403;SDS011;8311;50.158;8.642;2023-04-15T01:34:10;0.88;;;0.70;;
16403;SDS011;8311;50.158;8.642;2023-04-15T01:37:03;0.60;;;0.55;;
16403;SDS011;8311;50.158;8.642;2023-04-15T01:39:57;0.82;;;0.77;;
16403;SDS011;8311;50.158;8.642;2023-04-15T01:42:51;1.33;;;0.75;;
16403;SDS011;8311;50.158;8.642;2023-04-15T01:45:45;1.02;;;0.68;;
16403;SDS011;8311;50.158;8.642;2023-04-15T01:48:38;1.55;;;0.95;;
16403;SDS011;8311;50.158;8.642;2023-04-15T01:51:31;1.10;;;0.88;;
16403;SDS011;8311;50.158;8.642;2023-04-15T01:54:25;0.80;;;0.80;;
16403;SDS011;8311;50.158;8.642;2023-04-15T01:57:18;1.23;;;0.80;;
16403;SDS011;8311;50.158;8.642;2023-04-15T02:00:14;1.25;;;0.90;;
16403;SDS011;8311;50.158;8.642;2023-04-15T02:03:07;0.60;;;0.60;;
16403;SDS011;8311;50.158;8.642;2023-04-15T02:06:01;0.82;;;0.80;;
16403;SDS011;8311;50.158;8.642;2023-04-15T02:08:54;1.35;;;0.90;;
16403;SDS011;8311;50.158;8.642;2023-04-15T02:11:48;1.45;;;0.88;;
16403;SDS011;8311;50.158;8.642;2023-04-15T02:14:41;0.88;;;0.55;;
16403;SDS011;8311;50.158;8.642;2023-04-15T02:17:36;1.15;;;0.80;;
16403;SDS011;8311;50.158;8.642;2023-04-15T02:20:29;2.00;;;1.00;;
16403;SDS011;8311;50.158;8.642;2023-04-15T02:23:23;1.10;;;0.88;;
16403;SDS011;8311;50.158;8.642;2023-04-15T02:26:16;1.15;;;0.80;;
16403;SDS011;8311;50.158;8.642;2023-04-15T02:29:10;1.52;;;0.90;;
16403;SDS011;8311;50.158;8.642;2023-04-15T02:32:03;1.05;;;0.77;;
16403;SDS011;8311;50.158;8.642;2023-04-15T02:35:02;0.88;;;0.70;;
16403;SDS011;8311;50.158;8.642;2023-04-15T02:37:55;0.88;;;0.70;;
16403;SDS011;8311;50.158;8.642;2023-04-15T02:40:49;0.80;;;0.80;;
16403;SDS011;8311;50.158;8.642;2023-04-15T02:43:41;1.20;;;0.80;;
16403;SDS011;8311;50.158;8.642;2023-04-15T02:46:35;1.48;;;0.90;;
16403;SDS011;8311;50.158;8.642;2023-04-15T02:49:27;1.50;;;0.73;;
16403;SDS011;8311;50.158;8.642;2023-04-15T02:52:23;1.15;;;0.77;;
16403;SDS011;8311;50.158;8.642;2023-04-15T02:55:16;0.95;;;0.82;;
16403;SDS011;8311;50.158;8.642;2023-04-15T02:58:09;0.60;;;0.60;;
16403;SDS011;8311;50.158;8.642;2023-04-15T03:01:02;0.80;;;0.80;;
16403;SDS011;8311;50.158;8.642;2023-04-15T03:03:55;1.30;;;0.85;;
16403;SDS011;8311;50.158;8.642;2023-04-15T03:06:48;0.70;;;0.70;;
16403;SDS011;8311;50.158;8.642;2023-04-15T03:09:43;1.67;;;0.80;;
16403;SDS011;8311;50.158;8.642;2023-04-15T03:12:36;0.77;;;0.75;;
16403;SDS011;8311;50.158;8.642;2023-04-15T03:15:31;1.65;;;0.93;;
16403;SDS011;8311;50.158;8.642;2023-04-15T03:18:24;0.65;;;0.60;;
16403;SDS011;8311;50.158;8.642;2023-04-15T03:21:18;0.93;;;0.80;;
16403;SDS011;8311;50.158;8.642;2023-04-15T03:24:10;1.25;;;0.90;;
16403;SDS011;8311;50.158;8.642;2023-04-15T03:27:05;0.75;;;0.70;;
16403;SDS011;8311;50.158;8.642;2023-04-15T03:29:58;1.25;;;0.70;;
16403;SDS011;8311;50.158;8.642;2023-04-15T03:32:52;0.77;;;0.60;;
16403;SDS011;8311;50.158;8.642;2023-04-15T03:35:45;0.80;;;0.63;;
16403;SDS011;8311;50.158;8.642;2023-04-15T03:38:39;1.08;;;0.70;;
16403;SDS011;8311;50.158;8.642;2023-04-15T03:41:31;1.15;;;0.82;;
16403;SDS011;8311;50.158;8.642;2023-04-15T03:44:26;1.00;;;0.90;;
16403;SDS011;8311;50.158;8.642;2023-04-15T03:47:20;1.83;;;0.90;;
16403;SDS011;8311;50.158;8.642;2023-04-15T03:50:12;0.60;;;0.60;;
16403;SDS011;8311;50.158;8.642;2023-04-15T03:53:06;0.80;;;0.68;;
16403;SDS011;8311;50.158;8.642;2023-04-15T03:55:58;0.98;;;0.77;;
16403;SDS011;8311;50.158;8.642;2023-04-15T03:58:51;0.98;;;0.70;;
16403;SDS011;8311;50.158;8.642;2023-04-15T04:01:46;0.95;;;0.70;;
16403;SDS011;8311;50.158;8.642;2023-04-15T04:04:39;0.75;;;0.75;;
16403;SDS011;8311;50.158;8.642;2023-04-15T04:07:32;1.30;;;0.77;;
16403;SDS011;8311;50.158;8.642;2023-04-15T04:10:26;1.35;;;0.80;;
16403;SDS011;8311;50.158;8.642;2023-04-15T04:13:18;0.57;;;0.57;;
16403;SDS011;8311;50.158;8.642;2023-04-15T04:16:12;1.50;;;1.00;;
16403;SDS011;8311;50.158;8.642;2023-04-15T04:19:07;0.63;;;0.63;;
16403;SDS011;8311;50.158;8.642;2023-04-15T04:22:01;1.15;;;0.70;;
16403;SDS011;8311;50.158;8.642;2023-04-15T04:24:53;1.10;;;0.80;;
16403;SDS011;8311;50.158;8.642;2023-04-15T04:27:46;1.08;;;0.80;;
16403;SDS011;8311;50.158;8.642;2023-04-15T04:30:39;1.48;;;0.80;;
16403;SDS011;8311;50.158;8.642;2023-04-15T04:33:32;0.77;;;0.55;;
16403;SDS011;8311;50.158;8.642;2023-04-15T04:36:30;0.80;;;0.65;;
16403;SDS011;8311;50.158;8.642;2023-04-15T04:39:22;1.80;;;0.90;;
16403;SDS011;8311;50.158;8.642;2023-04-15T04:42:16;1.10;;;0.77;;
16403;SDS011;8311;50.158;8.642;2023-04-15T04:45:09;1.00;;;0.80;;
16403;SDS011;8311;50.158;8.642;2023-04-15T04:48:03;0.70;;;0.65;;
16403;SDS011;8311;50.158;8.642;2023-04-15T04:50:58;1.17;;;0.73;;
16403;SDS011;8311;50.158;8.642;2023-04-15T04:53:52;1.15;;;0.80;;
16403;SDS011;8311;50.158;8.642;2023-04-15T04:56:46;1.20;;;0.93;;
16403;SDS011;8311;50.158;8.642;2023-04-15T04:59:39;1.02;;;0.70;;
16403;SDS011;8311;50.158;8.642;2023-04-15T05:02:33;0.90;;;0.80;;
16403;SDS011;8311;50.158;8.642;2023-04-15T05:05:27;1.13;;;0.73;;
16403;SDS011;8311;50.158;8.642;2023-04-15T05:08:19;1.52;;;0.77;;
16403;SDS011;8311;50.158;8.642;2023-04-15T05:11:14;1.20;;;0.90;;
16403;SDS011;8311;50.158;8.642;2023-04-15T05:14:06;0.82;;;0.65;;
16403;SDS011;8311;50.158;8.642;2023-04-15T05:17:00;0.80;;;0.68;;
16403;SDS011;8311;50.158;8.642;2023-04-15T05:19:53;0.98;;;0.70;;
16403;SDS011;8311;50.158;8.642;2023-04-15T05:22:46;1.00;;;0.60;;
16403;SDS011;8311;50.158;8.642;2023-04-15T05:25:39;0.70;;;0.70;;
16403;SDS011;8311;50.158;8.642;2023-04-15T05:28:34;0.50;;;0.50;;
16403;SDS011;8311;50.158;8.642;2023-04-15T05:31:26;1.23;;;0.75;;
16403;SDS011;8311;50.158;8.642;2023-04-15T05:34:20;0.75;;;0.75;;
16403;SDS011;8311;50.158;8.642;2023-04-15T05:37:13;1.65;;;0.80;;
16403;SDS011;8311;50.158;8.642;2023-04-15T05:40:06;0.90;;;0.80;;
16403;SDS011;8311;50.158;8.642;2023-04-15T05:43:01;1.27;;;1.00;;
16403;SDS011;8311;50.158;8.642;2023-04-15T05:45:55;0.70;;;0.60;;
16403;SDS011;8311;50.158;8.642;2023-04-15T05:48:48;0.80;;;0.80;;
16403;SDS011;8311;50.158;8.642;2023-04-15T05:51:42;0.70;;;0.68;;
16403;SDS011;8311;50.158;8.642;2023-04-15T05:54:34;1.10;;;0.65;;
16403;SDS011;8311;50.158;8.642;2023-04-15T05:57:27;0.88;;;0.80;;
16403;SDS011;8311;50.158;8.642;2023-04-15T06:00:21;1.02;;;0.77;;
16403;SDS011;8311;50.158;8.642;2023-04-15T06:03:16;0.75;;;0.60;;
16403;SDS011;8311;50.158;8.642;2023-04-15T06:06:09;1.05;;;0.70;;
16403;SDS011;8311;50.158;8.642;2023-04-15T06:09:03;0.93;;;0.80;;
16403;SDS011;8311;50.158;8.642;2023-04-15T06:11:57;0.60;;;0.50;;
16403;SDS011;8311;50.158;8.642;2023-04-15T06:14:52;1.45;;;0.80;;
16403;SDS011;8311;50.158;8.642;2023-04-15T06:17:44;0.85;;;0.70;;
16403;SDS011;8311;50.158;8.642;2023-04-15T06:20:39;0.98;;;0.70;;
16403;SDS011;8311;50.158;8.642;2023-04-15T06:23:33;0.93;;;0.73;;
16403;SDS011;8311;50.158;8.642;2023-04-15T06:26:26;0.60;;;0.60;;
16403;SDS011;8311;50.158;8.642;2023-04-15T06:29:19;0.60;;;0.60;;
16403;SDS011;8311;50.158;8.642;2023-04-15T06:32:12;1.50;;;0.90;;
16403;SDS011;8311;50.158;8.642;2023-04-15T06:35:06;0.60;;;0.60;;
16403;SDS011;8311;50.158;8.642;2023-04-15T06:38:01;1.20;;;0.80;;
16403;SDS011;8311;50.158;8.642;2023-04-15T06:40:53;1.15;;;0.80;;
16403;SDS011;8311;50.158;8.642;2023-04-15T06:43:47;0.88;;;0.70;;
16403;SDS011;8311;50.158;8.642;2023-04-15T06:46:40;1.08;;;0.88;;
16403;SDS011;8311;50.158;8.642;2023-04-15T06:49:34;1.25;;;0.70;;
16403;SDS011;8311;50.158;8.642;2023-04-15T06:52:27;0.90;;;0.70;;
16403;SDS011;8311;50.158;8.642;2023-04-15T06:55:21;0.60;;;0.60;;
16403;SDS011;8311;50.158;8.642;2023-04-15T06:58:13;1.40;;;0.80;;
16403;SDS011;8311;50.158;8.642;2023-04-15T07:01:08;1.52;;;0.90;;
16403;SDS011;8311;50.158;8.642;2023-04-15T07:04:01;1.05;;;0.60;;
16403;SDS011;8311;50.158;8.642;2023-04-15T07:06:54;0.70;;;0.70;;
16403;SDS011;8311;50.158;8.642;2023-04-15T07:09:48;0.75;;;0.75;;
16403;SDS011;8311;50.158;8.642;2023-04-15T07:12:43;0.50;;;0.50;;
16403;SDS011;8311;50.158;8.642;2023-04-15T07:15:37;0.47;;;0.47;;
16403;SDS011;8311;50.158;8.642;2023-04-15T07:18:30;0.88;;;0.75;;
16403;SDS011;8311;50.158;8.642;2023-04-15T07:21:24;0.80;;;0.55;;
16403;SDS011;8311;50.158;8.642;2023-04-15T07:24:18;1.15;;;0.75;;
16403;SDS011;8311;50.158;8.642;2023-04-15T07:27:11;1.23;;;0.73;;
16403;SDS011;8311;50.158;8.642;2023-04-15T07:30:08;0.98;;;0.73;;
16403;SDS011;8311;50.158;8.642;2023-04-15T07:33:03;0.70;;;0.60;;
16403;SDS011;8311;50.158;8.642;2023-04-15T07:35:56;0.85;;;0.70;;
16403;SDS011;8311;50.158;8.642;2023-04-15T07:38:49;0.70;;;0.70;;
16403;SDS011;8311;50.158;8.642;2023-04-15T07:41:42;0.75;;;0.60;;
16403;SDS011;8311;50.158;8.642;2023-04-15T07:44:35;0.93;;;0.80;;
16403;SDS011;8311;50.158;8.642;2023-04-15T07:47:29;1.17;;;0.90;;
16403;SDS011;8311;50.158;8.642;2023-04-15T07:50:23;1.52;;;1.02;;
16403;SDS011;8311;50.158;8.642;2023-04-15T07:53:17;0.70;;;0.70;;
16403;SDS011;8311;50.158;8.642;2023-04-15T07:56:11;1.27;;;0.80;;
16403;SDS011;8311;50.158;8.642;2023-04-15T07:59:04;0.82;;;0.70;;
16403;SDS011;8311;50.158;8.642;2023-04-15T08:01:57;0.85;;;0.70;;
16403;SDS011;8311;50.158;8.642;2023-04-15T08:04:52;0.60;;;0.60;;
16403;SDS011;8311;50.158;8.642;2023-04-15T08:07:46;0.60;;;0.60;;
16403;SDS011;8311;50.158;8.642;2023-04-15T08:10:41;0.93;;;0.77;;
16403;SDS011;8311;50.158;8.642;2023-04-15T08:13:34;0.65;;;0.60;;
16403;SDS011;8311;50.158;8.642;2023-04-15T08:16:28;0.82;;;0.70;;
16403;SDS011;8311;50.158;8.642;2023-04-15T08:19:21;0.80;;;0.65;;
16403;SDS011;8311;50.158;8.642;2023-04-15T08:22:16;2.35;;;0.60;;
16403;SDS011;8311;50.158;8.642;2023-04-15T08:25:12;0.80;;;0.75;;
16403;SDS011;8311;50.158;8.642;2023-04-15T08:28:05;0.52;;;0.45;;
16403;SDS011;8311;50.158;8.642;2023-04-15T08:31:00;0.73;;;0.68;;
16403;SDS011;8311;50.158;8.642;2023-04-15T08:33:52;1.80;;;0.90;;
16403;SDS011;8311;50.158;8.642;2023-04-15T08:36:47;0.70;;;0.70;;
16403;SDS011;8311;50.158;8.642;2023-04-15T08:39:41;1.48;;;0.90;;
16403;SDS011;8311;50.158;8.642;2023-04-15T08:42:36;0.82;;;0.60;;
16403;SDS011;8311;50.158;8.642;2023-04-15T08:45:37;1.05;;;0.77;;
16403;SDS011;8311;50.158;8.642;2023-04-15T08:48:31;1.13;;;0.70;;
16403;SDS011;8311;50.158;8.642;2023-04-15T08:51:25;0.60;;;0.60;;
16403;SDS011;8311;50.158;8.642;2023-04-15T08:54:19;1.20;;;0.80;;
16403;SDS011;8311;50.158;8.642;2023-04-15T08:57:13;1.08;;;0.70;;
16403;SDS011;8311;50.158;8.642;2023-04-15T09:00:08;0.73;;;0.63;;
16403;SDS011;8311;50.158;8.642;2023-04-15T09:03:03;0.98;;;0.70;;
16403;SDS011;8311;50.158;8.642;2023-04-15T09:05:57;0.60;;;0.60;;
16403;SDS011;8311;50.158;8.642;2023-04-15T09:08:51;1.13;;;0.80;;
16403;SDS011;8311;50.158;8.642;2023-04-15T09:11:45;0.77;;;0.52;;
16403;SDS011;8311;50.158;8.642;2023-04-15T09:14:42;0.60;;;0.60;;
16403;SDS011;8311;50.158;8.642;2023-04-15T09:17:40;10.50;;;2.05;;
16403;SDS011;8311;50.158;8.642;2023-04-15T09:20:37;4.53;;;1.92;;
16403;SDS011;8311;50.158;8.642;2023-04-15T09:23:32;4.82;;;2.38;;
16403;SDS011;8311;50.158;8.642;2023-04-15T09:26:29;5.68;;;2.95;;
16403;SDS011;8311;50.158;8.642;2023-04-15T09:29:24;4.05;;;2.17;;
16403;SDS011;8311;50.158;8.642;2023-04-15T09:32:18;5.93;;;2.40;;
16403;SDS011;8311;50.158;8.642;2023-04-15T09:35:14;5.35;;;2.38;;
16403;SDS011;8311;50.158;8.642;2023-04-15T09:38:08;5.15;;;2.03;;
16403;SDS011;8311;50.158;8.642;2023-04-15T09:41:02;6.32;;;2.50;;
16403;SDS011;8311;50.158;8.642;2023-04-15T09:43:54;9.73;;;2.67;;
16403;SDS011;8311;50.158;8.642;2023-04-15T09:46:49;6.88;;;2.30;;
16403;SDS011;8311;50.158;8.642;2023-04-15T09:49:47;3.90;;;2.25;;
16403;SDS011;8311;50.158;8.642;2023-04-15T09:52:46;7.63;;;2.55;;
16403;SDS011;8311;50.158;8.642;2023-04-15T09:55:42;4.10;;;2.40;;
16403;SDS011;8311;50.158;8.642;2023-04-15T09:58:36;3.17;;;1.88;;
16403;SDS011;8311;50.158;8.642;2023-04-15T10:01:30;4.78;;;2.00;;
16403;SDS011;8311;50.158;8.642;2023-04-15T10:04:23;2.17;;;1.35;;
16403;SDS011;8311;50.158;8.642;2023-04-15T10:07:20;2.28;;;1.50;;
16403;SDS011;8311;50.158;8.642;2023-04-15T10:10:15;2.42;;;1.50;;
16403;SDS011;8311;50.158;8.642;2023-04-15T10:13:09;4.47;;;2.00;;
16403;SDS011;8311;50.158;8.642;2023-04-15T10:16:04;3.83;;;1.58;;
16403;SDS011;8311;50.158;8.642;2023-04-15T10:18:59;3.05;;;1.77;;
16403;SDS011;8311;50.158;8.642;2023-04-15T10:21:54;5.22;;;1.85;;
16403;SDS011;8311;50.158;8.642;2023-04-15T10:24:48;2.97;;;1.65;;
16403;SDS011;8311;50.158;8.642;2023-04-15T10:27:43;4.82;;;1.90;;
16403;SDS011;8311;50.158;8.642;2023-04-15T10:30:39;3.00;;;1.67;;
16403;SDS011;8311;50.158;8.642;2023-04-15T10:33:33;2.78;;;1.40;;
16403;SDS011;8311;50.158;8.642;2023-04-15T10:36:27;4.13;;;1.60;;
16403;SDS011;8311;50.158;8.642;2023-04-15T10:39:40;4.57;;;1.80;;
16403;SDS011;8311;50.158;8.642;2023-04-15T10:42:36;2.45;;;1.30;;
16403;SDS011;8311;50.158;8.642;2023-04-15T10:45:32;3.90;;;1.52;;
16403;SDS011;8311;50.158;8.642;2023-04-15T10:48:28;2.50;;;1.70;;
16403;SDS011;8311;50.158;8.642;2023-04-15T10:51:29;5.13;;;1.63;;
16403;SDS011;8311;50.158;8.642;2023-04-15T10:54:29;3.75;;;1.60;;
16403;SDS011;8311;50.158;8.642;2023-04-15T10:57:24;2.97;;;1.45;;
16403;SDS011;8311;50.158;8.642;2023-04-15T11:00:28;3.53;;;1.50;;
16403;SDS011;8311;50.158;8.642;2023-04-15T11:03:33;4.38;;;1.73;;
16403;SDS011;8311;50.158;8.642;2023-04-15T11:06:42;3.28;;;1.55;;
16403;SDS011;8311;50.158;8.642;2023-04-15T11:09:36;2.90;;;1.30;;
16403;SDS011;8311;50.158;8.642;2023-04-15T11:12:35;3.30;;;1.45;;
16403;SDS011;8311;50.158;8.642;2023-04-15T11:15:29;3.88;;;1.73;;
16403;SDS011;8311;50.158;8.642;2023-04-15T11:18:25;3.55;;;1.65;;
16403;SDS011;8311;50.158;8.642;2023-04-15T11:21:23;3.55;;;1.60;;
16403;SDS011;8311;50.158;8.642;2023-04-15T11:24:22;3.65;;;1.67;;
16403;SDS011;8311;50.158;8.642;2023-04-15T11:27:21;2.88;;;1.40;;
16403;SDS011;8311;50.158;8.642;2023-04-15T11:30:16;1.88;;;1.40;;
16403;SDS011;8311;50.158;8.642;2023-04-15T11:33:12;3.63;;;1.67;;
16403;SDS011;8311;50.158;8.642;2023-04-15T11:36:05;3.45;;;1.48;;
16403;SDS011;8311;50.158;8.642;2023-04-15T11:38:58;2.78;;;1.40;;
16403;SDS011;8311;50.158;8.642;2023-04-15T11:41:52;2.28;;;1.60;;
16403;SDS011;8311;50.158;8.642;2023-04-15T11:44:45;3.50;;;1.20;;
16403;SDS011;8311;50.158;8.642;2023-04-15T11:47:38;5.18;;;1.48;;
16403;SDS011;8311;50.158;8.642;2023-04-15T11:50:33;3.67;;;1.70;;
16403;SDS011;8311;50.158;8.642;2023-04-15T11:53:35;2.75;;;1.55;;
16403;SDS011;8311;50.158;8.642;2023-04-15T11:56:30;2.42;;;1.35;;
16403;SDS011;8311;50.158;8.642;2023-04-15T11:59:23;1.63;;;1.40;;
16403;SDS011;8311;50.158;8.642;2023-04-15T12:02:29;3.33;;;1.63;;
16403;SDS011;8311;50.158;8.642;2023-04-15T12:05:22;2.10;;;1.50;;
16403;SDS011;8311;50.158;8.642;2023-04-15T12:08:17;2.05;;;1.42;;
16403;SDS011;8311;50.158;8.642;2023-04-15T12:11:10;2.30;;;1.45;;
16403;SDS011;8311;50.158;8.642;2023-04-15T12:14:04;3.58;;;1.60;;
16403;SDS011;8311;50.158;8.642;2023-04-15T12:16:59;4.22;;;1.65;;
16403;SDS011;8311;50.158;8.642;2023-04-15T12:19:54;3.92;;;1.40;;
16403;SDS011;8311;50.158;8.642;2023-04-15T12:22:48;3.58;;;1.80;;
16403;SDS011;8311;50.158;8.642;2023-04-15T12:25:42;1.83;;;1.17;;
16403;SDS011;8311;50.158;8.642;2023-04-15T12:28:39;3.45;;;1.50;;
16403;SDS011;8311;50.158;8.642;2023-04-15T12:31:32;2.55;;;1.35;;
16403;SDS011;8311;50.158;8.642;2023-04-15T12:34:27;2.80;;;1.52;;
16403;SDS011;8311;50.158;8.642;2023-04-15T12:37:22;1.60;;;1.33;;
16403;SDS011;8311;50.158;8.642;2023-04-15T12:40:16;2.70;;;1.20;;
16403;SDS011;8311;50.158;8.642;2023-04-15T12:43:12;2.45;;;1.38;;
16403;SDS011;8311;50.158;8.642;2023-04-15T12:46:05;1.45;;;0.80;;
16403;SDS011;8311;50.158;8.642;2023-04-15T12:48:59;1.05;;;0.75;;
16403;SDS011;8311;50.158;8.642;2023-04-15T12:51:53;2.58;;;1.13;;
16403;SDS011;8311;50.158;8.642;2023-04-15T12:54:47;2.60;;;0.70;;
16403;SDS011;8311;50.158;8.642;2023-04-15T12:57:40;1.20;;;0.85;;
16403;SDS011;8311;50.158;8.642;2023-04-15T13:00:35;1.10;;;0.80;;
16403;SDS011;8311;50.158;8.642;2023-04-15T13:03:29;0.82;;;0.70;;
16403;SDS011;8311;50.158;8.642;2023-04-15T13:06:23;1.42;;;0.80;;
16403;SDS011;8311;50.158;8.642;2023-04-15T13:09:16;1.73;;;1.00;;
16403;SDS011;8311;50.158;8.642;2023-04-15T13:12:09;1.70;;;0.70;;
16403;SDS011;8311;50.158;8.642;2023-04-15T13:15:04;2.05;;;0.70;;
16403;SDS011;8311;50.158;8.642;2023-04-15T13:18:01;1.10;;;0.70;;
16403;SDS011;8311;50.158;8.642;2023-04-15T13:20:55;0.90;;;0.70;;
16403;SDS011;8311;50.158;8.642;2023-04-15T13:23:49;0.98;;;0.50;;
16403;SDS011;8311;50.158;8.642;2023-04-15T13:26:42;1.88;;;0.70;;
16403;SDS011;8311;50.158;8.642;2023-04-15T13:29:35;1.52;;;0.60;;
16403;SDS011;8311;50.158;8.642;2023-04-15T13:32:29;0.70;;;0.65;;
16403;SDS011;8311;50.158;8.642;2023-04-15T13:35:23;0.50;;;0.50;;
16403;SDS011;8311;50.158;8.642;2023-04-15T13:38:16;1.00;;;0.65;;
16403;SDS011;8311;50.158;8.642;2023-04-15T13:41:09;0.82;;;0.50;;
16403;SDS011;8311;50.158;8.642;2023-04-15T13:44:03;0.50;;;0.50;;
16403;SDS011;8311;50.158;8.642;2023-04-15T13:46:57;0.70;;;0.60;;
16403;SDS011;8311;50.158;8.642;2023-04-15T13:49:51;1.63;;;1.00;;
16403;SDS011;8311;50.158;8.642;2023-04-15T13:52:48;1.45;;;0.70;;
16403;SDS011;8311;50.158;8.642;2023-04-15T13:55:41;1.08;;;0.70;;
16403;SDS011;8311;50.158;8.642;2023-04-15T13:58:34;0.85;;;0.60;;
16403;SDS011;8311;50.158;8.642;2023-04-15T14:01:28;0.95;;;0.60;;
16403;SDS011;8311;50.158;8.642;2023-04-15T14:04:21;1.15;;;0.75;;
16403;SDS011;8311;50.158;8.642;2023-04-15T14:07:15;2.05;;;0.50;;
16403;SDS011;8311;50.158;8.642;2023-04-15T14:10:09;0.73;;;0.60;;
16403;SDS011;8311;50.158;8.642;2023-04-15T14:13:03;0.93;;;0.60;;
16403;SDS011;8311;50.158;8.642;2023-04-15T14:15:56;0.82;;;0.60;;
16403;SDS011;8311;50.158;8.642;2023-04-15T14:18:49;0.82;;;0.63;;
16403;SDS011;8311;50.158;8.642;2023-04-15T14:21:43;1.10;;;0.65;;
16403;SDS011;8311;50.158;8.642;2023-04-15T14:24:37;0.60;;;0.55;;
16403;SDS011;8311;50.158;8.642;2023-04-15T14:27:31;0.50;;;0.50;;
16403;SDS011;8311;50.158;8.642;2023-04-15T14:30:24;0.75;;;0.50;;
16403;SDS011;8311;50.158;8.642;2023-04-15T14:33:18;1.10;;;0.70;;
16403;SDS011;8311;50.158;8.642;2023-04-15T14:36:11;2.30;;;0.70;;
16403;SDS011;8311;50.158;8.642;2023-04-15T14:39:04;1.23;;;0.80;;
16403;SDS011;8311;50.158;8.642;2023-04-15T14:41:58;1.45;;;0.90;;
16403;SDS011;8311;50.158;8.642;2023-04-15T14:44:53;1.02;;;0.70;;
16403;SDS011;8311;50.158;8.642;2023-04-15T14:47:46;0.75;;;0.63;;
16403;SDS011;8311;50.158;8.642;2023-04-15T14:50:39;1.30;;;0.80;;
16403;SDS011;8311;50.158;8.642;2023-04-15T14:53:32;1.40;;;0.68;;
16403;SDS011;8311;50.158;8.642;2023-04-15T14:56:26;0.73;;;0.70;;
16403;SDS011;8311;50.158;8.642;2023-04-15T14:59:19;0.75;;;0.63;;
16403;SDS011;8311;50.158;8.642;2023-04-15T15:02:13;0.63;;;0.47;;
16403;SDS011;8311;50.158;8.642;2023-04-15T15:05:27;0.95;;;0.75;;
16403;SDS011;8311;50.158;8.642;2023-04-15T15:08:20;0.77;;;0.70;;
16403;SDS011;8311;50.158;8.642;2023-04-15T15:11:13;0.85;;;0.40;;
16403;SDS011;8311;50.158;8.642;2023-04-15T15:14:07;0.80;;;0.80;;
16403;SDS011;8311;50.158;8.642;2023-04-15T15:17:00;1.10;;;0.60;;
16403;SDS011;8311;50.158;8.642;2023-04-15T15:19:54;0.40;;;0.40;;
16403;SDS011;8311;50.158;8.642;2023-04-15T15:22:48;0.70;;;0.50;;
16403;SDS011;8311;50.158;8.642;2023-04-15T15:25:42;0.68;;;0.50;;
16403;SDS011;8311;50.158;8.642;2023-04-15T15:28:35;0.50;;;0.50;;
16403;SDS011;8311;50.158;8.642;2023-04-15T15:31:29;0.65;;;0.63;;
16403;SDS011;8311;50.158;8.642;2023-04-15T15:34:22;1.42;;;0.70;;
16403;SDS011;8311;50.158;8.642;2023-04-15T15:37:16;1.30;;;0.50;;
16403;SDS011;8311;50.158;8.642;2023-04-15T15:40:09;0.80;;;0.57;;
16403;SDS011;8311;50.158;8.642;2023-04-15T15:43:03;0.85;;;0.65;;
16403;SDS011;8311;50.158;8.642;2023-04-15T15:45:56;2.38;;;0.50;;
16403;SDS011;8311;50.158;8.642;2023-04-15T15:48:49;0.55;;;0.43;;
16403;SDS011;8311;50.158;8.642;2023-04-15T15:51:42;0.68;;;0.50;;
16403;SDS011;8311;50.158;8.642;2023-04-15T15:54:38;0.93;;;0.43;;
16403;SDS011;8311;50.158;8.642;2023-04-15T15:57:32;1.52;;;0.50;;
16403;SDS011;8311;50.158;8.642;2023-04-15T16:00:25;0.60;;;0.60;;
16403;SDS011;8311;50.158;8.642;2023-04-15T16:03:19;1.20;;;0.65;;
16403;SDS011;8311;50.158;8.642;2023-04-15T16:06:12;2.28;;;0.60;;
16403;SDS011;8311;50.158;8.642;2023-04-15T16:09:05;0.93;;;0.60;;
16403;SDS011;8311;50.158;8.642;2023-04-15T16:11:59;0.82;;;0.55;;
16403;SDS011;8311;50.158;8.642;2023-04-15T16:14:54;0.55;;;0.47;;
16403;SDS011;8311;50.158;8.642;2023-04-15T16:17:47;1.05;;;0.60;;
16403;SDS011;8311;50.158;8.642;2023-04-15T16:20:40;0.50;;;0.50;;
16403;SDS011;8311;50.158;8.642;2023-04-15T16:23:33;1.08;;;0.65;;
16403;SDS011;8311;50.158;8.642;2023-04-15T16:26:28;0.50;;;0.40;;
16403;SDS011;8311;50.158;8.642;2023-04-15T16:29:22;0.70;;;0.40;;
16403;SDS011;8311;50.158;8.642;2023-04-15T16:32:16;0.95;;;0.60;;
16403;SDS011;8311;50.158;8.642;2023-04-15T16:35:09;0.45;;;0.40;;
16403;SDS011;8311;50.158;8.642;2023-04-15T16:38:02;0.50;;;0.50;;
16403;SDS011;8311;50.158;8.642;2023-04-15T16:40:57;0.38;;;0.38;;
16403;SDS011;8311;50.158;8.642;2023-04-15T16:43:52;0.38;;;0.38;;
16403;SDS011;8311;50.158;8.642;2023-04-15T16:46:47;0.40;;;0.40;;
16403;SDS011;8311;50.158;8.642;2023-04-15T16:49:41;0.63;;;0.60;;
16403;SDS011;8311;50.158;8.642;2023-04-15T16:52:34;0.93;;;0.60;;
16403;SDS011;8311;50.158;8.642;2023-04-15T16:55:27;0.60;;;0.50;;
16403;SDS011;8311;50.158;8.642;2023-04-15T16:58:20;0.73;;;0.50;;
16403;SDS011;8311;50.158;8.642;2023-04-15T17:01:14;0.68;;;0.40;;
16403;SDS011;8311;50.158;8.642;2023-04-15T17:04:09;0.65;;;0.60;;
16403;SDS011;8311;50.158;8.642;2023-04-15T17:07:02;0.50;;;0.50;;
16403;SDS011;8311;50.158;8.642;2023-04-15T17:09:56;0.50;;;0.50;;
16403;SDS011;8311;50.158;8.642;2023-04-15T17:12:49;0.40;;;0.40;;
16403;SDS011;8311;50.158;8.642;2023-04-15T17:15:43;1.00;;;0.50;;
16403;SDS011;8311;50.158;8.642;2023-04-15T17:18:36;0.47;;;0.40;;
16403;SDS011;8311;50.158;8.642;2023-04-15T17:21:30;0.40;;;0.40;;
16403;SDS011;8311;50.158;8.642;2023-04-15T17:24:23;0.80;;;0.47;;
16403;SDS011;8311;50.158;8.642;2023-04-15T17:27:16;0.65;;;0.45;;
16403;SDS011;8311;50.158;8.642;2023-04-15T17:30:10;0.90;;;0.60;;
16403;SDS011;8311;50.158;8.642;2023-04-15T17:33:04;0.47;;;0.47;;
16403;SDS011;8311;50.158;8.642;2023-04-15T17:36:17;0.52;;;0.43;;
16403;SDS011;8311;50.158;8.642;2023-04-15T17:39:12;0.82;;;0.50;;
16403;SDS011;8311;50.158;8.642;2023-04-15T17:42:05;0.73;;;0.40;;
16403;SDS011;8311;50.158;8.642;2023-04-15T17:44:58;0.47;;;0.40;;